Time;durP1;ratioP1;P1;durP2;ratioP2;P2;SDS_P1;SDS_P2;PMS_P1;PMS_P2;Temp;Humidity;BMP_temperature;BMP_pressure;BME280_temperature;BME280_humidity;BME280_pressure;Samples;Min_cycle;Max_cycle;Signal;HPM_P1;HPM_P2
2021/10/16 00:01:09;;;;;;;5.25;2.02;;;24.80;99.90;;;;;;1918096;73;21198;-80
2021/10/16 00:03:41;;;;;;;2.67;2.00;;;24.90;99.90;;;;;;1921417;73;21142;-81
2021/10/16 00:06:12;;;;;;;6.78;2.47;;;24.90;99.90;;;;;;1913344;73;21247;-77
2021/10/16 00:08:43;;;;;;;4.83;2.10;;;24.90;99.90;;;;;;1914639;73;21725;-82
2021/10/16 00:11:14;;;;;;;2.70;1.87;;;24.90;99.90;;;;;;1869878;74;21254;-80
2021/10/16 00:13:45;;;;;;;2.98;1.70;;;24.90;99.90;;;;;;1894656;74;21138;-79
2021/10/16 00:16:16;;;;;;;2.30;1.80;;;24.90;99.90;;;;;;1920700;73;21229;-79
2021/10/16 00:18:47;;;;;;;2.90;1.98;;;24.90;99.90;;;;;;1884404;74;21161;-79
2021/10/16 00:21:18;;;;;;;2.62;2.20;;;25.00;99.90;;;;;;1903267;73;21175;-80
2021/10/16 00:23:48;;;;;;;3.27;2.05;;;25.00;99.90;;;;;;1925712;73;21220;-80
2021/10/16 00:26:19;;;;;;;4.75;2.15;;;25.00;99.90;;;;;;1881083;74;21124;-79
2021/10/16 00:28:50;;;;;;;2.70;2.05;;;25.00;99.90;;;;;;1896101;73;21170;-79
2021/10/16 00:31:21;;;;;;;2.83;1.90;;;25.00;99.90;;;;;;1906827;74;21307;-80
2021/10/16 00:33:52;;;;;;;4.08;2.00;;;25.00;99.90;;;;;;1910642;73;21179;-79
2021/10/16 00:36:23;;;;;;;2.22;1.62;;;25.00;99.90;;;;;;1886425;74;21093;-79
2021/10/16 00:38:53;;;;;;;3.85;2.22;;;25.00;99.90;;;;;;1896074;74;21156;-79
2021/10/16 00:41:24;;;;;;;2.47;1.90;;;25.00;99.90;;;;;;1879535;74;21155;-79
2021/10/16 00:43:57;;;;;;;3.08;1.95;;;25.00;99.90;;;;;;1932634;73;21193;-79
2021/10/16 00:46:28;;;;;;;4.30;1.90;;;25.00;99.90;;;;;;1911817;73;21174;-80
2021/10/16 00:48:59;;;;;;;3.35;2.10;;;25.10;99.90;;;;;;1902845;74;21134;-79
2021/10/16 00:51:30;;;;;;;3.72;2.72;;;25.10;99.90;;;;;;1883521;73;21638;-79
2021/10/16 00:54:02;;;;;;;2.85;2.00;;;25.10;99.90;;;;;;1901189;73;21746;-79
2021/10/16 00:56:35;;;;;;;2.60;1.70;;;25.20;99.90;;;;;;1896703;74;21158;-80
2021/10/16 00:59:06;;;;;;;2.47;1.92;;;25.10;99.90;;;;;;1888857;74;21934;-79
2021/10/16 01:01:38;;;;;;;2.50;1.85;;;25.20;99.90;;;;;;1884797;73;21110;-79
2021/10/16 01:04:09;;;;;;;2.47;2.17;;;25.10;99.90;;;;;;1898550;73;21673;-80
2021/10/16 01:06:41;;;;;;;3.30;2.00;;;25.10;99.90;;;;;;1903232;73;21601;-79
2021/10/16 01:09:12;;;;;;;2.52;2.00;;;25.10;99.90;;;;;;1913452;73;21157;-79
2021/10/16 01:11:45;;;;;;;3.17;1.60;;;25.10;99.90;;;;;;1926139;73;21190;-80
2021/10/16 01:14:17;;;;;;;3.30;1.85;;;25.10;99.90;;;;;;1888834;74;21837;-80
2021/10/16 01:16:51;;;;;;;3.72;2.10;;;25.10;99.90;;;;;;1917371;72;21586;-80
2021/10/16 01:19:23;;;;;;;4.20;2.17;;;25.00;99.90;;;;;;1898551;73;22278;-80
2021/10/16 01:21:55;;;;;;;5.30;2.00;;;25.00;99.90;;;;;;1898200;72;21299;-80
2021/10/16 01:24:26;;;;;;;2.60;2.10;;;25.00;99.90;;;;;;1879136;73;21142;-80
2021/10/16 01:26:58;;;;;;;4.17;2.42;;;25.00;99.90;;;;;;1920693;73;21226;-80
2021/10/16 01:29:29;;;;;;;5.03;2.60;;;25.00;99.90;;;;;;1913692;73;21210;-79
2021/10/16 01:32:03;;;;;;;3.47;2.60;;;25.00;99.90;;;;;;1918607;73;21091;-80
2021/10/16 01:34:33;;;;;;;4.47;2.80;;;25.00;99.90;;;;;;1886341;74;21105;-80
2021/10/16 01:37:04;;;;;;;3.85;2.47;;;25.00;99.90;;;;;;1879675;74;22093;-80
2021/10/16 01:39:35;;;;;;;4.50;2.27;;;25.00;99.90;;;;;;1915275;73;21725;-80
2021/10/16 01:42:08;;;;;;;4.35;2.62;;;25.00;99.90;;;;;;1869573;74;21272;-79
2021/10/16 01:45:11;;;;;;;3.87;2.90;;;25.00;99.90;;;;;;1905291;74;21670;-79
2021/10/16 01:47:49;;;;;;;7.20;2.50;;;24.90;99.90;;;;;;1867361;74;21214;-79
2021/10/16 01:50:24;;;;;;;3.87;2.62;;;25.00;99.90;;;;;;1889572;74;21152;-80
2021/10/16 01:52:55;;;;;;;3.27;2.50;;;25.00;99.90;;;;;;1891479;74;21234;-80
2021/10/16 01:55:26;;;;;;;4.58;3.27;;;25.00;99.90;;;;;;1893421;74;21773;-80
2021/10/16 01:58:00;;;;;;;3.58;2.30;;;25.00;99.90;;;;;;1900573;74;21602;-79
2021/10/16 02:00:30;;;;;;;4.22;2.00;;;25.00;99.90;;;;;;1889117;73;21205;-79
2021/10/16 02:03:01;;;;;;;5.05;2.20;;;25.00;99.90;;;;;;1893811;74;21607;-80
2021/10/16 02:05:42;;;;;;;2.45;2.10;;;25.00;99.90;;;;;;1884802;74;21192;-80
2021/10/16 02:08:26;;;;;;;2.52;2.05;;;25.00;99.90;;;;;;1865038;75;21087;-80
2021/10/16 02:11:13;;;;;;;2.67;1.70;;;25.10;99.90;;;;;;1862734;76;21147;-79
2021/10/16 02:13:45;;;;;;;2.55;1.80;;;25.00;99.90;;;;;;1843869;77;21150;-79
2021/10/16 02:16:16;;;;;;;3.80;1.90;;;25.00;99.90;;;;;;1873597;75;21258;-79
2021/10/16 02:18:47;;;;;;;2.30;1.50;;;25.00;99.90;;;;;;1872334;74;21180;-80
2021/10/16 02:21:18;;;;;;;3.05;1.65;;;25.10;99.90;;;;;;1880272;74;21761;-79
2021/10/16 02:23:49;;;;;;;2.12;1.10;;;25.10;99.90;;;;;;1850696;75;21177;-79
2021/10/16 02:26:20;;;;;;;2.72;1.40;;;25.10;99.90;;;;;;1875490;74;21161;-79
2021/10/16 02:28:52;;;;;;;3.47;1.30;;;25.10;99.90;;;;;;1852149;76;22566;-79
2021/10/16 02:31:23;;;;;;;2.08;1.50;;;25.10;99.90;;;;;;1881235;74;21179;-79
2021/10/16 02:33:54;;;;;;;2.10;1.40;;;25.20;99.90;;;;;;1879718;74;21763;-79
2021/10/16 02:36:28;;;;;;;2.22;1.57;;;25.20;99.90;;;;;;1871695;74;21129;-80
2021/10/16 02:38:59;;;;;;;2.40;1.40;;;25.20;99.90;;;;;;1881194;74;21148;-80
2021/10/16 02:41:32;;;;;;;2.22;1.50;;;25.20;99.90;;;;;;1906767;73;21146;-80
2021/10/16 02:44:01;;;;;;;3.02;1.20;;;25.20;99.90;;;;;;1890714;73;21311;-80
2021/10/16 02:46:32;;;;;;;3.45;1.17;;;25.20;99.90;;;;;;1905417;74;21207;-80
2021/10/16 02:49:03;;;;;;;3.50;1.60;;;25.30;99.90;;;;;;1896906;74;21077;-79
2021/10/16 02:51:34;;;;;;;3.17;1.50;;;25.30;99.90;;;;;;1896431;74;21194;-78
2021/10/16 02:54:04;;;;;;;3.95;1.42;;;25.30;99.90;;;;;;1924481;73;21565;-79
2021/10/16 02:56:36;;;;;;;2.25;1.50;;;25.40;99.90;;;;;;1886679;74;21207;-79
2021/10/16 02:59:06;;;;;;;2.87;0.98;;;25.40;99.90;;;;;;1932590;73;21134;-79
2021/10/16 03:01:37;;;;;;;1.30;0.60;;;25.50;99.90;;;;;;1918270;73;21194;-80
2021/10/16 03:04:08;;;;;;;1.90;0.70;;;25.50;99.90;;;;;;1887068;74;21647;-80
2021/10/16 03:06:39;;;;;;;2.15;0.88;;;25.50;99.90;;;;;;1869865;74;21611;-81
2021/10/16 03:09:11;;;;;;;2.35;1.40;;;25.60;99.90;;;;;;1881214;73;21199;-80
2021/10/16 03:11:42;;;;;;;2.22;1.00;;;25.60;99.90;;;;;;1882423;73;22010;-80
2021/10/16 03:14:12;;;;;;;2.02;0.90;;;25.60;99.90;;;;;;1871624;74;21288;-79
2021/10/16 03:16:43;;;;;;;1.75;0.88;;;25.60;99.90;;;;;;1862011;73;21245;-79
2021/10/16 03:19:13;;;;;;;2.75;1.07;;;25.60;99.90;;;;;;1862134;74;21516;-80
2021/10/16 03:21:44;;;;;;;1.50;0.85;;;25.60;99.90;;;;;;1874538;73;21623;-80
2021/10/16 03:24:15;;;;;;;2.20;1.00;;;25.60;99.90;;;;;;1872645;74;21705;-79
2021/10/16 03:26:46;;;;;;;4.03;1.62;;;25.60;99.90;;;;;;1889662;74;21185;-79
2021/10/16 03:29:17;;;;;;;2.33;1.00;;;25.60;99.90;;;;;;1890128;74;21599;-79
2021/10/16 03:31:48;;;;;;;1.40;0.75;;;25.60;99.90;;;;;;1905766;74;21613;-79
2021/10/16 03:34:19;;;;;;;3.37;1.00;;;25.60;99.90;;;;;;1907060;73;21147;-79
2021/10/16 03:36:50;;;;;;;2.05;0.60;;;25.60;99.90;;;;;;1928712;73;21079;-79
2021/10/16 03:39:21;;;;;;;1.50;0.62;;;25.70;99.90;;;;;;1956448;72;21157;-80
2021/10/16 03:41:52;;;;;;;1.25;0.70;;;25.60;99.90;;;;;;1900444;73;21097;-81
2021/10/16 03:44:23;;;;;;;3.67;0.90;;;25.60;99.90;;;;;;1910800;73;21133;-80
2021/10/16 03:46:53;;;;;;;3.77;1.75;;;25.60;99.90;;;;;;1873238;74;21308;-79
2021/10/16 03:49:24;;;;;;;4.15;0.90;;;25.60;99.90;;;;;;1853978;75;21180;-79
2021/10/16 03:51:59;;;;;;;2.20;0.60;;;25.60;99.90;;;;;;1903347;73;21144;-79
2021/10/16 03:54:27;;;;;;;1.55;0.80;;;25.60;99.90;;;;;;1882794;74;21210;-79
2021/10/16 03:56:57;;;;;;;2.15;0.50;;;25.70;99.90;;;;;;1913401;73;21163;-79
2021/10/16 03:59:28;;;;;;;2.30;0.60;;;25.70;99.90;;;;;;1939449;73;21684;-79
2021/10/16 04:01:59;;;;;;;1.35;0.78;;;25.70;99.90;;;;;;1931665;73;21064;-80
2021/10/16 04:04:30;;;;;;;2.10;0.80;;;25.70;99.90;;;;;;1915139;73;21215;-80
2021/10/16 04:07:01;;;;;;;2.70;0.90;;;25.70;99.90;;;;;;1921158;73;21198;-79
2021/10/16 04:09:31;;;;;;;3.25;1.07;;;25.70;99.90;;;;;;1918812;73;21138;-73
2021/10/16 04:12:02;;;;;;;2.95;1.22;;;25.70;99.90;;;;;;1904933;73;21687;-72
2021/10/16 04:14:33;;;;;;;4.00;0.98;;;25.70;99.90;;;;;;1920322;73;21645;-73
2021/10/16 04:17:04;;;;;;;4.00;1.30;;;25.70;99.90;;;;;;1892011;74;21201;-73
2021/10/16 04:19:35;;;;;;;1.25;0.70;;;25.60;99.90;;;;;;1892804;74;21168;-73
2021/10/16 04:22:06;;;;;;;2.60;0.82;;;25.70;99.90;;;;;;1893903;74;21171;-72
2021/10/16 04:24:37;;;;;;;3.42;1.10;;;25.70;99.90;;;;;;1899259;74;21645;-73
2021/10/16 04:27:08;;;;;;;1.70;0.65;;;25.70;99.90;;;;;;1906643;74;21269;-72
2021/10/16 04:29:39;;;;;;;3.50;0.62;;;25.70;99.90;;;;;;1919609;74;21175;-72
2021/10/16 04:32:10;;;;;;;2.08;0.80;;;25.80;99.90;;;;;;1907796;72;21121;-72
2021/10/16 04:34:41;;;;;;;2.22;0.80;;;25.80;99.90;;;;;;1888317;73;21231;-72
2021/10/16 04:37:14;;;;;;;2.62;0.68;;;25.80;99.90;;;;;;1877803;74;21731;-72
2021/10/16 04:39:45;;;;;;;2.42;0.70;;;25.90;99.90;;;;;;1922561;73;21637;-72
2021/10/16 04:42:17;;;;;;;3.37;1.72;;;26.00;99.90;;;;;;1896281;73;21124;-72
2021/10/16 04:44:48;;;;;;;1.98;0.98;;;26.00;99.90;;;;;;1897496;73;21717;-72
2021/10/16 04:47:19;;;;;;;3.22;0.90;;;26.00;99.90;;;;;;1906696;74;21213;-72
2021/10/16 04:49:50;;;;;;;2.12;1.42;;;26.00;99.90;;;;;;1898815;73;21234;-71
2021/10/16 04:52:21;;;;;;;1.40;0.62;;;26.10;99.90;;;;;;1898722;74;21617;-74
2021/10/16 04:54:52;;;;;;;2.02;1.00;;;26.10;99.90;;;;;;1889713;73;21173;-73
2021/10/16 04:57:22;;;;;;;1.42;0.80;;;26.10;99.90;;;;;;1923152;73;21166;-72
2021/10/16 04:59:53;;;;;;;2.33;0.75;;;26.10;99.90;;;;;;1909421;74;21605;-74
2021/10/16 05:02:25;;;;;;;3.67;0.80;;;26.10;99.90;;;;;;1884712;73;21668;-73
2021/10/16 05:04:56;;;;;;;2.42;0.80;;;26.10;99.90;;;;;;1908705;73;21185;-74
2021/10/16 05:07:26;;;;;;;2.00;1.10;;;26.00;99.90;;;;;;1907796;74;21203;-74
2021/10/16 05:09:59;;;;;;;1.57;0.70;;;26.00;99.90;;;;;;1892166;74;21201;-76
2021/10/16 05:12:30;;;;;;;3.65;1.30;;;25.90;99.90;;;;;;1910398;74;21666;-74
2021/10/16 05:15:01;;;;;;;1.85;0.88;;;26.00;99.90;;;;;;1901855;73;21138;-73
2021/10/16 05:17:32;;;;;;;1.87;0.72;;;25.90;99.90;;;;;;1885607;74;21090;-73
2021/10/16 05:20:03;;;;;;;1.57;0.90;;;25.90;99.90;;;;;;1876471;74;21625;-74
2021/10/16 05:22:35;;;;;;;6.00;1.12;;;25.90;99.90;;;;;;1906273;73;21561;-74
2021/10/16 05:25:07;;;;;;;3.33;0.85;;;25.90;99.90;;;;;;1872779;74;21107;-73
2021/10/16 05:27:38;;;;;;;1.60;0.85;;;26.00;99.90;;;;;;1884839;74;21197;-74
2021/10/16 05:30:12;;;;;;;1.77;1.00;;;26.00;99.90;;;;;;1889628;74;21131;-73
2021/10/16 05:32:44;;;;;;;2.45;1.05;;;26.00;99.90;;;;;;1926483;72;21122;-75
2021/10/16 05:35:16;;;;;;;2.05;0.90;;;26.10;99.90;;;;;;1887371;73;21518;-75
2021/10/16 05:37:47;;;;;;;2.50;1.00;;;26.10;99.90;;;;;;1900079;74;21204;-76
2021/10/16 05:40:21;;;;;;;3.35;1.10;;;26.20;99.90;;;;;;1887699;74;21116;-75
2021/10/16 05:42:51;;;;;;;2.15;0.90;;;26.20;99.90;;;;;;1924806;73;21158;-74
2021/10/16 05:45:22;;;;;;;1.42;0.82;;;26.30;99.90;;;;;;1883809;74;21359;-74
2021/10/16 05:47:53;;;;;;;2.00;0.98;;;26.40;99.90;;;;;;1890872;74;21139;-73
2021/10/16 05:50:23;;;;;;;1.60;0.75;;;26.50;99.90;;;;;;1909618;72;21203;-76
2021/10/16 05:52:54;;;;;;;2.90;0.90;;;26.60;99.90;;;;;;1902559;72;21154;-75
2021/10/16 05:55:25;;;;;;;1.50;0.80;;;26.60;99.90;;;;;;1921548;73;21233;-73
2021/10/16 05:57:56;;;;;;;1.40;0.60;;;26.80;99.90;;;;;;1898803;73;21153;-73
2021/10/16 06:00:27;;;;;;;2.75;0.93;;;26.90;99.90;;;;;;1887033;74;21349;-74
2021/10/16 06:02:59;;;;;;;1.30;0.68;;;27.00;99.90;;;;;;1910292;73;21137;-74
2021/10/16 06:05:30;;;;;;;4.62;1.50;;;27.10;99.90;;;;;;1916896;73;21156;-74
2021/10/16 06:08:00;;;;;;;3.02;0.80;;;27.10;99.90;;;;;;1919456;73;21133;-73
2021/10/16 06:10:32;;;;;;;1.62;0.85;;;27.20;99.90;;;;;;1920434;73;21141;-74
2021/10/16 06:13:03;;;;;;;2.65;0.80;;;27.20;99.90;;;;;;1940963;73;21219;-74
2021/10/16 06:15:34;;;;;;;2.75;0.70;;;27.20;99.90;;;;;;1941351;73;21804;-74
2021/10/16 06:18:09;;;;;;;2.77;0.78;;;27.20;99.90;;;;;;1913888;74;21662;-74
2021/10/16 06:20:37;;;;;;;1.17;0.62;;;27.20;99.90;;;;;;1913529;74;21813;-75
2021/10/16 06:23:08;;;;;;;1.80;1.10;;;27.20;99.90;;;;;;1927554;73;21112;-74
2021/10/16 06:25:40;;;;;;;3.80;1.47;;;27.10;99.90;;;;;;1932907;73;21098;-74
2021/10/16 06:28:14;;;;;;;2.33;0.80;;;27.20;99.90;;;;;;1924233;73;21227;-74
2021/10/16 06:30:44;;;;;;;1.95;0.80;;;27.20;99.90;;;;;;1915989;73;21219;-74
2021/10/16 06:33:14;;;;;;;2.20;1.05;;;27.20;99.90;;;;;;1904160;74;21124;-73
2021/10/16 06:35:46;;;;;;;2.72;1.00;;;27.20;99.90;;;;;;1880003;74;21144;-73
2021/10/16 06:38:18;;;;;;;5.03;1.20;;;27.20;99.90;;;;;;1863996;74;21668;-74
2021/10/16 06:40:58;;;;;;;1.40;0.80;;;27.20;99.90;;;;;;1857954;74;21852;-74
2021/10/16 06:43:29;;;;;;;1.35;0.68;;;27.20;99.90;;;;;;1866970;74;21198;-74
2021/10/16 06:46:00;;;;;;;2.55;1.17;;;27.30;99.90;;;;;;1903882;73;21133;-74
2021/10/16 06:48:31;;;;;;;1.62;0.93;;;27.30;99.90;;;;;;1913180;73;21158;-73
2021/10/16 06:51:02;;;;;;;0.88;0.50;;;27.40;99.90;;;;;;1911207;73;21713;-73
2021/10/16 06:53:33;;;;;;;2.52;0.50;;;27.50;99.90;;;;;;1876533;74;21589;-74
2021/10/16 06:56:06;;;;;;;1.30;0.53;;;27.50;99.90;;;;;;1894635;73;21213;-74
2021/10/16 06:58:37;;;;;;;1.82;0.60;;;27.50;99.90;;;;;;1910768;73;21483;-73
2021/10/16 07:01:07;;;;;;;2.65;0.90;;;27.50;99.90;;;;;;1925730;72;21128;-74
2021/10/16 07:03:38;;;;;;;1.77;0.88;;;27.50;99.90;;;;;;1948246;71;21196;-73
2021/10/16 07:06:11;;;;;;;2.35;0.78;;;27.50;99.90;;;;;;1894343;74;21226;-73
2021/10/16 07:08:42;;;;;;;1.42;0.72;;;27.50;99.90;;;;;;1854746;75;21177;-74
2021/10/16 07:11:13;;;;;;;1.00;0.50;;;27.50;99.90;;;;;;1925441;73;21166;-73
2021/10/16 07:13:43;;;;;;;1.57;0.80;;;27.50;99.90;;;;;;1905384;73;21136;-74
2021/10/16 07:16:14;;;;;;;1.67;0.60;;;27.50;99.90;;;;;;1904158;73;21946;-73
2021/10/16 07:18:45;;;;;;;1.82;0.85;;;27.60;99.90;;;;;;1913425;72;21057;-73
2021/10/16 07:21:15;;;;;;;2.12;0.70;;;27.50;99.90;;;;;;1918546;73;21163;-73
2021/10/16 07:23:48;;;;;;;1.87;0.50;;;27.50;99.90;;;;;;1946091;71;21243;-73
2021/10/16 07:26:18;;;;;;;1.20;0.60;;;27.50;99.90;;;;;;1881041;74;21300;-74
2021/10/16 07:28:50;;;;;;;3.12;0.57;;;27.50;99.90;;;;;;1887936;74;21700;-73
2021/10/16 07:31:24;;;;;;;2.72;0.80;;;27.50;99.90;;;;;;1883420;73;21121;-73
2021/10/16 07:33:56;;;;;;;3.10;0.62;;;27.40;99.90;;;;;;1892172;74;21512;-74
2021/10/16 07:36:28;;;;;;;0.95;0.40;;;27.50;99.90;;;;;;1887280;74;21226;-74
2021/10/16 07:38:58;;;;;;;0.70;0.30;;;27.40;99.90;;;;;;1900809;73;21231;-72
2021/10/16 07:41:28;;;;;;;1.00;0.40;;;27.40;99.90;;;;;;1873839;75;21146;-73
2021/10/16 07:43:59;;;;;;;0.82;0.20;;;27.50;99.90;;;;;;1871980;73;21789;-72
2021/10/16 07:46:31;;;;;;;1.67;0.40;;;27.40;99.90;;;;;;1815348;75;22054;-74
2021/10/16 07:49:03;;;;;;;2.20;0.47;;;27.40;99.90;;;;;;1892884;74;21086;-74
2021/10/16 07:51:34;;;;;;;4.70;0.40;;;27.50;99.90;;;;;;1855610;76;21313;-75
2021/10/16 07:54:06;;;;;;;2.15;0.40;;;27.50;99.90;;;;;;1907698;73;21590;-74
2021/10/16 07:56:37;;;;;;;1.42;0.40;;;27.50;99.90;;;;;;1916959;73;21122;-74
2021/10/16 07:59:08;;;;;;;0.72;0.40;;;27.60;99.90;;;;;;1904207;73;21926;-74
2021/10/16 08:01:38;;;;;;;0.93;0.30;;;27.60;99.90;;;;;;1922177;73;21685;-74
2021/10/16 08:04:09;;;;;;;1.12;0.40;;;27.70;99.90;;;;;;1910692;72;21147;-73
2021/10/16 08:06:40;;;;;;;0.95;0.40;;;27.70;99.90;;;;;;1917404;72;21122;-74
2021/10/16 08:09:11;;;;;;;0.75;0.35;;;27.70;99.90;;;;;;1925700;73;21123;-74
2021/10/16 08:11:41;;;;;;;0.82;0.20;;;27.70;99.90;;;;;;1911094;73;21189;-74
2021/10/16 08:14:12;;;;;;;1.17;0.40;;;27.70;99.90;;;;;;1924484;73;21190;-75
2021/10/16 08:16:43;;;;;;;1.42;0.40;;;27.70;99.90;;;;;;1901727;73;21210;-74
2021/10/16 08:19:14;;;;;;;2.05;0.60;;;27.80;99.90;;;;;;1916467;73;21256;-74
2021/10/16 08:21:45;;;;;;;1.05;0.45;;;27.80;99.90;;;;;;1930236;73;21201;-73
2021/10/16 08:24:16;;;;;;;1.27;0.50;;;27.80;99.90;;;;;;1887863;74;21189;-72
2021/10/16 08:26:47;;;;;;;0.95;0.30;;;27.80;99.90;;;;;;1927095;73;21132;-73
2021/10/16 08:29:19;;;;;;;1.10;0.30;;;27.70;99.90;;;;;;1919336;73;21735;-73
2021/10/16 08:31:50;;;;;;;2.15;0.50;;;27.70;99.90;;;;;;1909803;73;21177;-73
2021/10/16 08:34:21;;;;;;;1.72;0.62;;;27.60;99.90;;;;;;1924226;73;21158;-74
2021/10/16 08:36:52;;;;;;;2.20;0.60;;;27.70;99.90;;;;;;1944803;71;21181;-73
2021/10/16 08:39:24;;;;;;;2.15;0.50;;;27.60;99.90;;;;;;1942108;73;21371;-73
2021/10/16 08:41:56;;;;;;;1.65;0.50;;;27.70;99.90;;;;;;1923200;73;21270;-73
2021/10/16 08:44:26;;;;;;;1.57;0.50;;;27.70;99.90;;;;;;1922983;73;21250;-72
2021/10/16 08:46:59;;;;;;;0.70;0.33;;;27.80;99.90;;;;;;1921864;73;21236;-72
2021/10/16 08:49:32;;;;;;;1.62;0.50;;;27.80;99.90;;;;;;1939900;73;21684;-73
2021/10/16 08:52:03;;;;;;;0.45;0.30;;;27.80;99.90;;;;;;1932202;73;21115;-74
2021/10/16 08:54:36;;;;;;;1.17;0.50;;;27.80;99.90;;;;;;1940215;71;21142;-73
2021/10/16 08:57:07;;;;;;;1.27;0.37;;;27.80;99.90;;;;;;1935566;71;22100;-74
2021/10/16 08:59:38;;;;;;;1.60;0.37;;;27.80;99.90;;;;;;1858995;74;21129;-74
2021/10/16 09:02:09;;;;;;;2.52;0.50;;;27.80;99.90;;;;;;1875449;73;21126;-74
2021/10/16 09:04:40;;;;;;;1.92;0.40;;;27.80;99.90;;;;;;1931037;71;21206;-73
2021/10/16 09:07:13;;;;;;;3.22;0.70;;;27.70;99.90;;;;;;1945750;72;21469;-73
2021/10/16 09:09:44;;;;;;;2.77;0.60;;;27.70;99.90;;;;;;1927817;72;21205;-73
2021/10/16 09:12:15;;;;;;;1.27;0.70;;;27.70;99.90;;;;;;1925050;73;21156;-74
2021/10/16 09:15:07;;;;;;;3.20;0.80;;;27.60;99.90;;;;;;1906703;73;21646;-74
2021/10/16 09:17:37;;;;;;;2.98;0.70;;;27.70;99.90;;;;;;1898222;73;21181;-74
2021/10/16 09:20:10;;;;;;;1.85;0.40;;;27.60;99.90;;;;;;1903079;73;21088;-74
2021/10/16 09:22:41;;;;;;;2.75;0.72;;;27.60;99.90;;;;;;1942640;72;21067;-75
2021/10/16 09:25:11;;;;;;;2.65;0.70;;;27.60;99.90;;;;;;1946234;71;21201;-74
2021/10/16 09:27:44;;;;;;;1.17;0.50;;;27.60;99.90;;;;;;1885793;74;21162;-74
2021/10/16 09:30:14;;;;;;;1.40;0.65;;;27.60;99.90;;;;;;1956959;71;21537;-75
2021/10/16 09:32:48;;;;;;;4.90;0.70;;;27.60;99.90;;;;;;1917555;73;21148;-75
2021/10/16 09:35:20;;;;;;;2.25;0.93;;;27.60;99.90;;;;;;1899225;73;21131;-75
2021/10/16 09:37:52;;;;;;;2.00;0.60;;;27.60;99.90;;;;;;1929025;73;21193;-74
2021/10/16 09:40:26;;;;;;;2.00;0.50;;;27.60;99.90;;;;;;1933219;72;21224;-74
2021/10/16 09:42:56;;;;;;;2.00;0.70;;;27.60;99.90;;;;;;1944663;71;21153;-74
2021/10/16 09:45:28;;;;;;;1.87;0.75;;;27.60;99.90;;;;;;1927792;72;21175;-74
2021/10/16 09:47:59;;;;;;;3.92;0.78;;;27.50;99.90;;;;;;1962671;72;21110;-74
2021/10/16 09:50:30;;;;;;;1.57;0.60;;;27.50;99.90;;;;;;1948530;71;21161;-74
2021/10/16 09:53:01;;;;;;;1.57;0.57;;;27.50;99.90;;;;;;1952570;71;21544;-74
2021/10/16 09:55:33;;;;;;;2.98;0.72;;;27.50;99.90;;;;;;1957597;71;21133;-73
2021/10/16 09:58:04;;;;;;;1.72;0.70;;;27.50;99.90;;;;;;1918645;72;21854;-73
2021/10/16 10:00:37;;;;;;;2.67;0.80;;;27.40;99.90;;;;;;1958323;72;21267;-74
2021/10/16 10:03:10;;;;;;;2.00;1.02;;;27.40;99.90;;;;;;1934989;72;21142;-74
2021/10/16 10:05:43;;;;;;;4.53;0.98;;;27.40;99.90;;;;;;1941031;72;21079;-75
2021/10/16 10:08:15;;;;;;;2.27;0.90;;;27.30;99.90;;;;;;1943855;72;21205;-74
2021/10/16 10:10:47;;;;;;;1.87;0.95;;;27.30;99.90;;;;;;1940671;73;21157;-75
2021/10/16 10:13:18;;;;;;;2.10;0.80;;;27.30;99.90;;;;;;1923013;73;21527;-75
2021/10/16 10:15:55;;;;;;;1.95;1.20;;;27.30;99.90;;;;;;1925933;73;21100;-74
2021/10/16 10:20:59;;;;;;;2.95;1.20;;;27.30;99.90;;;;;;1910151;74;21698;-74
2021/10/16 10:23:30;;;;;;;3.98;0.85;;;27.30;99.90;;;;;;1901793;73;21244;-74
2021/10/16 10:26:03;;;;;;;3.87;0.80;;;27.20;99.90;;;;;;1949630;71;21150;-74
2021/10/16 10:28:36;;;;;;;4.33;1.25;;;27.20;99.90;;;;;;1961882;71;21127;-73
2021/10/16 10:31:08;;;;;;;2.42;1.12;;;27.20;99.90;;;;;;1927030;72;21091;-74
2021/10/16 10:33:41;;;;;;;5.08;1.47;;;27.20;99.90;;;;;;1875983;75;21763;-74
2021/10/16 10:36:14;;;;;;;3.60;1.20;;;27.20;99.90;;;;;;1917586;73;21668;-74
2021/10/16 10:38:45;;;;;;;4.78;1.50;;;27.10;99.90;;;;;;1911270;73;21131;-74
2021/10/16 10:41:18;;;;;;;4.28;1.60;;;27.10;99.90;;;;;;1960655;71;21087;-74
2021/10/16 10:43:52;;;;;;;7.35;1.40;;;27.10;99.90;;;;;;1973290;71;21710;-74
2021/10/16 10:46:25;;;;;;;4.53;1.80;;;27.10;99.90;;;;;;1980174;70;21563;-74
2021/10/16 10:48:58;;;;;;;4.28;1.55;;;27.10;99.90;;;;;;1982627;70;21581;-73
2021/10/16 10:51:38;;;;;;;2.85;1.50;;;27.10;99.90;;;;;;1931236;72;21101;-74
2021/10/16 10:54:06;;;;;;;2.90;1.70;;;27.10;99.90;;;;;;1947644;72;21080;-74
2021/10/16 10:56:39;;;;;;;4.65;1.80;;;27.00;99.90;;;;;;1937846;72;21886;-74
2021/10/16 10:59:12;;;;;;;4.10;1.90;;;27.00;99.90;;;;;;1947172;71;21624;-74
2021/10/16 11:01:45;;;;;;;3.17;2.00;;;27.00;99.90;;;;;;1964007;71;21585;-73
2021/10/16 11:04:18;;;;;;;8.28;3.10;;;27.00;99.90;;;;;;1920403;73;21224;-74
2021/10/16 11:06:52;;;;;;;4.10;2.05;;;27.00;99.90;;;;;;1920809;73;21737;-74
2021/10/16 11:09:22;;;;;;;4.12;2.27;;;27.00;99.90;;;;;;1904840;73;21518;-74
2021/10/16 11:11:53;;;;;;;3.75;1.70;;;26.90;99.90;;;;;;1933784;73;21478;-74
2021/10/16 11:14:26;;;;;;;5.33;2.27;;;27.00;99.90;;;;;;1917004;73;21232;-74
2021/10/16 11:17:00;;;;;;;6.22;2.30;;;26.90;99.90;;;;;;1965657;71;21123;-74
2021/10/16 11:19:32;;;;;;;3.58;1.80;;;26.90;99.90;;;;;;1977023;71;21128;-73
2021/10/16 11:22:03;;;;;;;3.45;1.72;;;26.90;99.90;;;;;;1939953;72;21289;-73
2021/10/16 11:24:34;;;;;;;5.10;1.67;;;26.90;99.90;;;;;;1949835;71;21095;-73
2021/10/16 11:27:05;;;;;;;3.50;1.90;;;26.90;99.90;;;;;;1977005;71;21142;-73
2021/10/16 11:29:38;;;;;;;4.42;3.00;;;26.90;99.90;;;;;;1955828;72;21203;-73
2021/10/16 11:32:11;;;;;;;8.75;4.78;;;26.90;99.90;;;;;;1945414;71;21098;-74
2021/10/16 11:34:44;;;;;;;9.65;6.05;;;26.90;99.90;;;;;;1946059;72;21221;-73
2021/10/16 11:37:15;;;;;;;7.97;4.40;;;26.90;99.90;;;;;;1958414;72;21130;-73
2021/10/16 11:39:48;;;;;;;6.65;3.15;;;26.80;99.90;;;;;;1940718;72;21093;-74
2021/10/16 11:42:19;;;;;;;4.37;2.67;;;26.80;99.90;;;;;;1952081;72;21671;-73
2021/10/16 11:44:50;;;;;;;4.65;3.20;;;26.80;99.90;;;;;;1954840;72;21259;-74
2021/10/16 11:47:23;;;;;;;5.17;3.02;;;26.80;99.90;;;;;;1962414;72;21207;-74
2021/10/16 11:49:53;;;;;;;8.03;3.60;;;26.80;99.90;;;;;;1954244;72;21223;-74
2021/10/16 11:52:25;;;;;;;6.50;4.00;;;26.80;99.90;;;;;;1941032;73;21540;-74
2021/10/16 11:54:58;;;;;;;4.85;3.02;;;26.80;99.90;;;;;;1969432;72;21070;-74
2021/10/16 11:57:30;;;;;;;4.87;2.58;;;26.80;99.90;;;;;;1963414;72;21614;-73
2021/10/16 12:00:02;;;;;;;5.25;3.37;;;26.80;99.90;;;;;;1946525;72;21129;-74
2021/10/16 12:02:35;;;;;;;6.47;4.42;;;26.70;99.90;;;;;;1938529;72;21663;-74
2021/10/16 12:05:09;;;;;;;6.33;4.47;;;26.80;99.90;;;;;;1954171;72;21226;-73
2021/10/16 12:07:39;;;;;;;7.08;4.60;;;;;;;;;;1948299;72;21546;-73
2021/10/16 12:10:13;;;;;;;5.10;3.10;;;26.70;99.90;;;;;;1957182;72;21094;-74
2021/10/16 12:12:46;;;;;;;6.00;2.72;;;26.70;99.90;;;;;;1978715;72;21160;-74
2021/10/16 12:15:18;;;;;;;5.03;2.08;;;26.70;99.90;;;;;;1961563;72;21658;-74
2021/10/16 12:17:48;;;;;;;4.00;2.22;;;26.70;99.90;;;;;;1974817;72;21550;-74
2021/10/16 12:20:19;;;;;;;3.55;1.70;;;26.60;99.90;;;;;;1958632;72;21126;-73
2021/10/16 12:22:52;;;;;;;3.55;1.62;;;26.70;99.90;;;;;;1970171;72;21193;-73
2021/10/16 12:25:24;;;;;;;3.85;2.27;;;26.60;99.90;;;;;;1972341;72;21607;-73
2021/10/16 12:27:57;;;;;;;4.10;1.77;;;26.60;99.90;;;;;;1949010;71;21205;-72
2021/10/16 12:30:28;;;;;;;4.62;1.90;;;26.60;99.90;;;;;;1966105;72;21879;-73
2021/10/16 12:33:02;;;;;;;4.40;2.00;;;26.60;99.90;;;;;;1960784;72;21078;-73
2021/10/16 12:35:34;;;;;;;5.42;1.55;;;26.60;99.90;;;;;;1927448;73;21600;-73
2021/10/16 12:38:05;;;;;;;6.35;1.80;;;26.60;99.90;;;;;;1926757;73;21117;-73
2021/10/16 12:40:38;;;;;;;5.85;1.98;;;26.60;99.90;;;;;;1933325;73;21554;-73
2021/10/16 12:43:10;;;;;;;3.95;1.70;;;26.50;99.90;;;;;;1936305;72;21197;-74
2021/10/16 12:45:42;;;;;;;4.12;1.67;;;26.50;99.90;;;;;;1905166;73;21258;-74
2021/10/16 12:48:15;;;;;;;4.08;2.00;;;26.50;99.90;;;;;;1854285;75;21099;-73
2021/10/16 12:50:48;;;;;;;5.28;1.80;;;26.50;99.90;;;;;;1912593;73;21127;-73
2021/10/16 12:53:20;;;;;;;7.55;1.60;;;26.50;99.90;;;;;;1934246;72;21698;-71
2021/10/16 12:55:51;;;;;;;3.55;1.72;;;26.40;99.90;;;;;;1948072;72;21207;-73
2021/10/16 12:58:22;;;;;;;3.40;1.75;;;26.50;99.90;;;;;;1953939;72;21188;-79
2021/10/16 13:00:53;;;;;;;2.83;1.82;;;26.50;99.90;;;;;;1951214;72;22429;-79
2021/10/16 13:03:24;;;;;;;4.17;1.90;;;26.50;99.90;;;;;;1957074;72;21114;-80
2021/10/16 13:05:57;;;;;;;5.42;1.80;;;26.40;99.90;;;;;;1927029;72;21165;-80
2021/10/16 13:08:27;;;;;;;4.53;1.52;;;26.40;99.90;;;;;;1939757;72;21680;-78
2021/10/16 13:10:59;;;;;;;2.70;1.32;;;26.40;99.90;;;;;;1922460;72;21207;-79
2021/10/16 13:13:30;;;;;;;4.40;1.17;;;26.40;99.90;;;;;;1952281;72;21548;-78